Time;durP1;ratioP1;P1;durP2;ratioP2;P2;SDS_P1;SDS_P2;PMS_P1;PMS_P2;Temp;Humidity;BMP_temperature;BMP_pressure;BME280_temperature;BME280_humidity;BME280_pressure;Samples;Min_cycle;Max_cycle;Signal;HPM_P1;HPM_P2
2023/08/06 00:00:31;;;;;;;1.27;0.52;;;27.10;80.90;;;;;;6214604;23;20171;-84
2023/08/06 00:03:01;;;;;;;0.68;0.50;;;27.20;81.10;;;;;;6239991;23;20170;-84
2023/08/06 00:05:29;;;;;;;0.45;0.40;;;27.10;80.60;;;;;;6236007;23;20171;-83
2023/08/06 00:07:58;;;;;;;2.40;1.38;;;27.10;80.50;;;;;;6211050;23;20173;-84
2023/08/06 00:10:27;;;;;;;0.32;0.32;;;27.10;82.50;;;;;;6213721;23;20199;-83
2023/08/06 00:12:55;;;;;;;1.23;1.13;;;27.10;81.80;;;;;;6239435;23;20516;-83
2023/08/06 00:15:24;;;;;;;0.65;0.65;;;27.00;82.30;;;;;;6236130;23;20166;-84
2023/08/06 00:17:53;;;;;;;1.30;0.85;;;27.00;82.40;;;;;;6214047;23;20232;-83
2023/08/06 00:20:23;;;;;;;1.17;0.82;;;27.00;82.00;;;;;;6239431;23;20246;-84
2023/08/06 00:22:52;;;;;;;2.58;0.90;;;27.00;81.80;;;;;;6240598;23;20158;-82
2023/08/06 00:25:20;;;;;;;3.05;1.60;;;26.90;81.30;;;;;;6238578;23;20429;-85
2023/08/06 00:27:49;;;;;;;1.08;0.80;;;26.90;81.60;;;;;;6241107;23;20194;-83
2023/08/06 00:30:20;;;;;;;1.05;0.55;;;26.90;81.50;;;;;;6240098;23;20236;-84
2023/08/06 00:32:49;;;;;;;3.03;1.40;;;26.90;82.50;;;;;;6242869;23;20166;-83
2023/08/06 00:35:18;;;;;;;1.17;0.88;;;26.90;82.50;;;;;;6238834;23;20192;-83
2023/08/06 00:37:48;;;;;;;0.57;0.57;;;26.90;82.50;;;;;;6241232;23;20167;-83
2023/08/06 00:40:17;;;;;;;1.65;1.17;;;26.80;82.40;;;;;;6240710;23;20181;-83
2023/08/06 00:42:46;;;;;;;1.05;0.95;;;26.80;82.70;;;;;;6216332;23;20181;-82
2023/08/06 00:45:14;;;;;;;1.08;0.65;;;26.80;83.10;;;;;;6214089;23;20587;-82
2023/08/06 00:47:43;;;;;;;1.05;0.82;;;26.80;82.70;;;;;;6242733;23;20166;-82
2023/08/06 00:50:12;;;;;;;1.77;1.05;;;26.80;82.90;;;;;;6243422;23;20252;-87
2023/08/06 00:52:41;;;;;;;0.50;0.50;;;26.70;84.40;;;;;;6242431;23;20162;-85
2023/08/06 00:55:11;;;;;;;0.65;0.65;;;26.70;86.10;;;;;;6239540;23;20170;-82
2023/08/06 00:57:40;;;;;;;1.15;1.15;;;26.70;85.80;;;;;;6242486;23;20154;-81
2023/08/06 01:00:09;;;;;;;0.40;0.40;;;26.70;86.20;;;;;;6214881;23;20166;-83
2023/08/06 01:02:38;;;;;;;0.77;0.68;;;26.70;86.10;;;;;;6242641;23;20616;-84
2023/08/06 01:05:07;;;;;;;2.92;1.38;;;26.70;87.00;;;;;;6241688;23;20257;-84
2023/08/06 01:07:48;;;;;;;0.90;0.90;;;26.60;87.20;;;;;;6242235;23;20162;-83
2023/08/06 01:10:29;;;;;;;0.77;0.65;;;26.50;89.00;;;;;;6241132;23;20542;-86
2023/08/06 01:13:09;;;;;;;2.22;1.33;;;26.50;89.30;;;;;;6240881;23;20189;-82
2023/08/06 01:15:45;;;;;;;0.88;0.85;;;26.50;88.30;;;;;;6242634;23;20162;-83
2023/08/06 01:18:14;;;;;;;1.45;1.05;;;26.50;88.20;;;;;;6241728;23;20194;-84
2023/08/06 01:20:44;;;;;;;0.95;0.95;;;26.40;88.80;;;;;;6214879;23;20177;-85
2023/08/06 01:23:13;;;;;;;0.88;0.73;;;26.40;89.50;;;;;;6239303;23;20183;-85
2023/08/06 01:25:49;;;;;;;2.20;1.13;;;26.40;89.70;;;;;;6241792;23;20170;-82
2023/08/06 01:28:27;;;;;;;1.33;0.90;;;26.40;89.80;;;;;;6242508;23;20159;-85
2023/08/06 01:30:59;;;;;;;1.10;1.00;;;26.30;90.20;;;;;;6242677;23;20663;-86
2023/08/06 01:33:32;;;;;;;1.15;0.98;;;26.30;90.30;;;;;;6242186;23;20155;-85
2023/08/06 01:36:03;;;;;;;1.17;0.95;;;26.30;90.40;;;;;;6240578;23;20158;-83
2023/08/06 01:38:32;;;;;;;1.00;0.82;;;26.20;90.20;;;;;;6242267;23;20609;-82
2023/08/06 01:41:00;;;;;;;1.73;0.68;;;26.30;90.10;;;;;;6240181;23;20181;-85
2023/08/06 01:43:29;;;;;;;0.75;0.50;;;26.20;89.80;;;;;;6240916;23;20166;-85
2023/08/06 01:45:57;;;;;;;0.90;0.70;;;26.20;90.00;;;;;;6241218;23;20677;-84
2023/08/06 01:48:26;;;;;;;0.95;0.82;;;26.20;90.00;;;;;;6213015;23;20170;-84
2023/08/06 01:50:55;;;;;;;0.50;0.50;;;26.20;89.80;;;;;;6242277;23;20232;-85
2023/08/06 01:53:25;;;;;;;2.88;0.82;;;26.20;89.50;;;;;;6216043;23;20568;-83
2023/08/06 01:55:54;;;;;;;2.58;1.63;;;26.20;89.90;;;;;;6214460;23;20163;-85
2023/08/06 01:58:23;;;;;;;0.70;0.60;;;26.10;89.50;;;;;;6216317;23;20246;-85
2023/08/06 02:00:51;;;;;;;0.43;0.43;;;26.20;89.40;;;;;;6243519;23;20699;-85
2023/08/06 02:03:20;;;;;;;0.65;0.65;;;26.10;89.20;;;;;;6214901;23;20249;-85
2023/08/06 02:05:49;;;;;;;0.65;0.65;;;26.10;89.10;;;;;;6240253;23;20166;-83
2023/08/06 02:08:20;;;;;;;2.13;0.75;;;26.10;89.10;;;;;;6238342;23;20174;-85
2023/08/06 02:10:51;;;;;;;0.40;0.40;;;26.20;89.20;;;;;;6241486;23;20204;-84
2023/08/06 02:13:20;;;;;;;1.77;0.90;;;26.10;89.10;;;;;;6213333;23;20491;-85
2023/08/06 02:15:48;;;;;;;0.68;0.38;;;26.10;88.90;;;;;;6241973;23;20174;-85
2023/08/06 02:18:17;;;;;;;1.30;0.77;;;26.20;88.90;;;;;;6240008;23;20194;-84
2023/08/06 02:20:55;;;;;;;0.70;0.38;;;26.10;89.10;;;;;;6243698;23;20174;-85
2023/08/06 02:23:23;;;;;;;0.50;0.50;;;26.10;89.20;;;;;;6241972;23;20589;-85
2023/08/06 02:26:00;;;;;;;1.08;0.85;;;26.10;89.30;;;;;;6242917;23;20202;-85
2023/08/06 02:28:29;;;;;;;0.73;0.63;;;26.10;89.60;;;;;;6241603;23;20174;-85
2023/08/06 02:30:57;;;;;;;0.50;0.50;;;26.10;89.60;;;;;;6241875;23;20204;-83
2023/08/06 02:33:26;;;;;;;0.50;0.50;;;26.10;90.00;;;;;;6241503;23;20170;-83
2023/08/06 02:36:01;;;;;;;0.70;0.70;;;26.10;90.00;;;;;;6241996;23;20178;-85
2023/08/06 02:38:29;;;;;;;1.00;0.57;;;26.10;90.00;;;;;;6242413;23;20158;-83
2023/08/06 02:41:00;;;;;;;1.15;0.65;;;26.10;90.10;;;;;;6241709;23;20166;-85
2023/08/06 02:43:28;;;;;;;1.05;0.95;;;26.10;90.10;;;;;;6241235;23;20162;-84
2023/08/06 02:45:58;;;;;;;1.52;1.38;;;26.10;90.10;;;;;;6240065;23;20681;-85
2023/08/06 02:48:27;;;;;;;0.30;0.30;;;26.10;90.20;;;;;;6241645;23;20158;-84
2023/08/06 02:51:00;;;;;;;0.68;0.68;;;26.10;90.30;;;;;;6215792;23;20198;-85
2023/08/06 02:53:28;;;;;;;1.02;0.90;;;26.10;90.50;;;;;;6240493;23;20630;-85
2023/08/06 02:55:57;;;;;;;1.45;1.25;;;26.00;90.30;;;;;;6239717;23;20166;-85
2023/08/06 02:58:27;;;;;;;1.60;1.20;;;26.10;90.50;;;;;;6214535;23;20182;-82
2023/08/06 03:01:03;;;;;;;2.08;1.05;;;26.10;90.40;;;;;;6240119;23;20675;-83
2023/08/06 03:03:32;;;;;;;2.20;0.85;;;26.10;90.40;;;;;;6238418;23;20493;-82
2023/08/06 03:06:02;;;;;;;1.35;1.23;;;26.10;90.50;;;;;;6214283;23;20171;-84
2023/08/06 03:08:30;;;;;;;0.85;0.80;;;26.10;90.40;;;;;;6239467;23;20258;-85
2023/08/06 03:10:59;;;;;;;0.57;0.55;;;26.10;90.50;;;;;;6238973;23;20187;-82
2023/08/06 03:13:29;;;;;;;0.95;0.60;;;26.10;90.40;;;;;;6240038;23;20228;-83
2023/08/06 03:15:59;;;;;;;0.60;0.60;;;26.10;90.60;;;;;;6239494;23;20197;-83
2023/08/06 03:18:28;;;;;;;0.93;0.80;;;26.10;90.80;;;;;;6212945;23;20209;-82
2023/08/06 03:20:57;;;;;;;0.63;0.63;;;26.10;90.80;;;;;;6237421;23;20522;-85
2023/08/06 03:23:25;;;;;;;0.98;0.88;;;26.10;90.80;;;;;;6213871;23;20174;-83
2023/08/06 03:25:54;;;;;;;0.70;0.60;;;26.00;90.80;;;;;;6241075;23;20261;-84
2023/08/06 03:28:23;;;;;;;0.50;0.50;;;26.10;90.70;;;;;;6239234;23;20198;-84
2023/08/06 03:31:01;;;;;;;0.68;0.68;;;26.00;90.60;;;;;;6242065;23;20269;-84
2023/08/06 03:33:30;;;;;;;0.55;0.50;;;26.10;90.60;;;;;;6241461;23;20171;-84
2023/08/06 03:35:59;;;;;;;0.73;0.55;;;26.10;90.60;;;;;;6240366;23;20170;-85
2023/08/06 03:38:28;;;;;;;2.28;1.20;;;26.10;90.70;;;;;;6240276;23;20181;-86
2023/08/06 03:40:56;;;;;;;0.73;0.73;;;26.10;90.90;;;;;;6241334;23;20197;-86
2023/08/06 03:43:25;;;;;;;0.95;0.90;;;26.10;91.10;;;;;;6241041;23;20208;-83
2023/08/06 03:45:54;;;;;;;0.95;0.65;;;26.10;90.90;;;;;;6241330;23;20166;-85
2023/08/06 03:48:24;;;;;;;0.45;0.45;;;26.10;91.00;;;;;;6240458;23;20245;-85
2023/08/06 03:50:52;;;;;;;4.07;0.75;;;26.10;91.10;;;;;;6238501;23;20226;-86
2023/08/06 03:53:21;;;;;;;0.63;0.63;;;26.10;91.50;;;;;;6239259;23;20170;-81
2023/08/06 03:55:49;;;;;;;1.50;0.60;;;26.10;91.10;;;;;;6240476;23;20209;-86
2023/08/06 03:58:18;;;;;;;1.15;0.73;;;26.10;90.90;;;;;;6237363;23;20173;-83
2023/08/06 04:00:46;;;;;;;1.42;1.10;;;26.10;90.90;;;;;;6238165;23;20181;-84
2023/08/06 04:03:15;;;;;;;0.70;0.70;;;26.10;91.00;;;;;;6238942;23;20173;-85
2023/08/06 04:05:45;;;;;;;0.73;0.73;;;26.10;91.00;;;;;;6214074;23;20175;-84
2023/08/06 04:08:14;;;;;;;1.50;0.95;;;26.20;90.90;;;;;;6238236;23;20192;-83
2023/08/06 04:10:43;;;;;;;1.77;0.95;;;26.20;91.10;;;;;;6240767;23;20675;-84
2023/08/06 04:13:11;;;;;;;2.05;1.63;;;26.20;91.20;;;;;;6242463;23;20173;-84
2023/08/06 04:15:40;;;;;;;1.30;1.20;;;26.20;91.10;;;;;;6241109;23;20177;-83
2023/08/06 04:18:08;;;;;;;2.50;1.08;;;26.20;91.10;;;;;;6242327;23;20193;-82
2023/08/06 04:20:45;;;;;;;0.70;0.40;;;26.30;91.30;;;;;;6239757;23;20166;-82
2023/08/06 04:23:14;;;;;;;1.67;1.25;;;26.30;91.20;;;;;;6214048;23;20170;-84
2023/08/06 04:25:43;;;;;;;0.73;0.60;;;26.30;91.30;;;;;;6216383;23;20244;-84
2023/08/06 04:28:12;;;;;;;1.90;1.17;;;26.30;91.40;;;;;;6216519;23;20216;-84
2023/08/06 04:30:40;;;;;;;0.50;0.50;;;26.30;91.70;;;;;;6243199;23;20518;-86
2023/08/06 04:33:09;;;;;;;6.65;2.05;;;26.30;91.60;;;;;;6237850;23;20567;-84
2023/08/06 04:35:37;;;;;;;0.85;0.43;;;26.30;91.60;;;;;;6239892;23;20940;-83
2023/08/06 04:38:08;;;;;;;1.50;1.15;;;26.30;91.50;;;;;;6238290;23;20174;-84
2023/08/06 04:40:37;;;;;;;4.05;1.75;;;26.30;91.40;;;;;;6241075;23;20166;-84
2023/08/06 04:43:06;;;;;;;1.85;0.60;;;26.30;91.40;;;;;;6242127;23;20181;-85
2023/08/06 04:45:34;;;;;;;1.67;1.40;;;26.40;91.40;;;;;;6242726;23;20488;-84
2023/08/06 04:48:03;;;;;;;1.95;1.02;;;26.40;91.50;;;;;;6213888;23;20174;-84
2023/08/06 04:50:31;;;;;;;1.17;1.05;;;26.40;91.40;;;;;;6242162;23;20612;-84
2023/08/06 04:53:00;;;;;;;1.35;1.25;;;26.40;91.60;;;;;;6241001;23;20194;-83
2023/08/06 04:55:30;;;;;;;1.55;1.38;;;26.50;91.70;;;;;;6242631;23;20197;-84
2023/08/06 04:57:58;;;;;;;1.00;0.80;;;26.50;91.70;;;;;;6240159;23;20620;-83
2023/08/06 05:00:26;;;;;;;1.42;1.00;;;26.50;91.70;;;;;;6241694;23;20173;-86
2023/08/06 05:02:56;;;;;;;1.55;0.70;;;26.60;91.70;;;;;;6242198;23;20251;-84
2023/08/06 05:05:24;;;;;;;0.90;0.90;;;26.60;91.60;;;;;;6216177;23;20619;-85
2023/08/06 05:07:56;;;;;;;0.65;0.65;;;26.60;91.60;;;;;;6215861;23;20175;-83
2023/08/06 05:10:25;;;;;;;0.80;0.80;;;26.60;91.70;;;;;;6242959;23;20198;-84
2023/08/06 05:12:56;;;;;;;0.77;0.77;;;26.70;91.70;;;;;;6243299;23;20277;-83
2023/08/06 05:15:26;;;;;;;1.27;0.80;;;26.70;91.60;;;;;;6215349;23;20234;-84
2023/08/06 05:17:54;;;;;;;3.05;1.33;;;26.70;91.70;;;;;;6238401;22;20660;-85
2023/08/06 05:20:23;;;;;;;1.35;1.00;;;26.70;91.50;;;;;;6241941;23;20166;-85
2023/08/06 05:22:52;;;;;;;1.00;0.90;;;26.80;91.70;;;;;;6238749;23;20171;-85
2023/08/06 05:25:21;;;;;;;1.20;1.10;;;26.80;91.60;;;;;;6239802;23;20205;-86
2023/08/06 05:27:50;;;;;;;2.28;1.27;;;26.80;91.50;;;;;;6242186;23;20257;-85
2023/08/06 05:30:20;;;;;;;0.63;0.63;;;26.90;91.50;;;;;;6240464;23;20163;-86
2023/08/06 05:32:49;;;;;;;1.48;1.05;;;26.90;91.60;;;;;;6241281;23;20191;-84
2023/08/06 05:35:18;;;;;;;1.60;1.50;;;26.90;91.60;;;;;;6243881;23;20174;-85
2023/08/06 05:38:07;;;;;;;1.60;1.13;;;26.90;91.60;;;;;;6240888;23;20167;-87
2023/08/06 05:41:10;;;;;;;1.25;0.80;;;27.00;91.70;;;;;;6244261;23;20492;-91
2023/08/06 05:43:38;;;;;;;1.05;0.60;;;27.00;91.70;;;;;;6241901;23;20473;-89
2023/08/06 05:46:08;;;;;;;2.60;0.82;;;27.00;91.60;;;;;;6242543;23;20170;-85
2023/08/06 05:48:37;;;;;;;4.32;1.30;;;27.00;91.60;;;;;;6243955;23;20170;-85
2023/08/06 05:51:05;;;;;;;0.88;0.88;;;27.00;91.60;;;;;;6243742;23;20612;-86
2023/08/06 05:53:50;;;;;;;2.22;1.52;;;27.00;91.50;;;;;;6241095;23;20174;-86
2023/08/06 05:56:18;;;;;;;1.27;0.70;;;27.00;91.50;;;;;;6242520;23;20170;-87
2023/08/06 05:58:47;;;;;;;1.50;0.75;;;27.10;91.50;;;;;;6243621;23;20242;-88
2023/08/06 06:01:17;;;;;;;1.25;1.15;;;27.10;91.70;;;;;;6245063;23;20993;-88
2023/08/06 06:03:46;;;;;;;3.15;0.93;;;27.10;91.40;;;;;;6244549;23;20162;-87
2023/08/06 06:06:18;;;;;;;0.80;0.80;;;27.20;91.40;;;;;;6242991;23;20530;-88
2023/08/06 06:08:47;;;;;;;2.85;1.15;;;27.20;91.40;;;;;;6244273;23;20182;-86
2023/08/06 06:11:16;;;;;;;0.50;0.43;;;27.20;91.60;;;;;;6244205;23;20176;-85
2023/08/06 06:13:45;;;;;;;2.35;1.40;;;27.40;91.60;;;;;;6240087;23;20221;-88
2023/08/06 06:16:15;;;;;;;1.95;1.02;;;27.40;91.40;;;;;;6242800;23;20162;-87
2023/08/06 06:18:46;;;;;;;1.35;0.82;;;27.50;91.40;;;;;;6242962;22;20711;-86
2023/08/06 06:21:15;;;;;;;1.70;0.90;;;27.60;91.30;;;;;;6242175;23;20166;-87
2023/08/06 06:23:56;;;;;;;5.82;1.70;;;27.60;91.20;;;;;;6242482;23;20197;-88
2023/08/06 06:26:34;;;;;;;0.88;0.85;;;27.70;91.10;;;;;;6244514;23;20166;-86
2023/08/06 06:29:12;;;;;;;0.93;0.90;;;27.70;90.90;;;;;;6242703;23;20162;-87
2023/08/06 06:31:45;;;;;;;2.50;1.00;;;27.80;90.80;;;;;;6233045;23;20189;-86
2023/08/06 06:34:19;;;;;;;0.85;0.60;;;27.80;90.70;;;;;;6239734;23;20220;-89
2023/08/06 06:36:48;;;;;;;2.17;1.85;;;27.80;90.60;;;;;;6243517;23;20784;-85
2023/08/06 06:39:17;;;;;;;1.65;1.23;;;27.90;90.50;;;;;;6240625;23;20849;-85
2023/08/06 06:41:45;;;;;;;0.68;0.60;;;27.90;90.40;;;;;;6241486;23;20174;-86
2023/08/06 06:44:14;;;;;;;1.08;0.98;;;27.90;90.30;;;;;;6241139;23;20205;-86
2023/08/06 06:46:43;;;;;;;1.25;1.00;;;27.90;90.20;;;;;;6242703;23;20496;-86
2023/08/06 06:49:11;;;;;;;1.40;1.25;;;28.00;90.20;;;;;;6240927;23;20173;-85
2023/08/06 06:51:41;;;;;;;1.00;0.90;;;28.00;90.10;;;;;;6243594;23;20616;-86
2023/08/06 06:54:10;;;;;;;7.47;3.10;;;28.00;90.10;;;;;;6241652;23;20253;-87
2023/08/06 06:56:38;;;;;;;1.15;1.05;;;28.10;90.10;;;;;;6242700;23;20166;-87
2023/08/06 06:59:06;;;;;;;1.58;0.93;;;28.00;90.00;;;;;;6238649;23;20265;-86
2023/08/06 07:01:35;;;;;;;1.17;0.93;;;28.10;90.00;;;;;;6241861;23;20170;-86
2023/08/06 07:04:04;;;;;;;0.70;0.70;;;28.20;89.90;;;;;;6241149;23;20166;-86
2023/08/06 07:06:33;;;;;;;2.03;1.20;;;28.20;89.70;;;;;;6242091;23;20249;-86
2023/08/06 07:09:03;;;;;;;0.82;0.60;;;28.20;89.60;;;;;;6240857;23;20543;-85
2023/08/06 07:11:31;;;;;;;1.58;1.15;;;28.30;89.50;;;;;;6241584;23;20166;-86
2023/08/06 07:14:00;;;;;;;1.42;1.27;;;28.30;89.40;;;;;;6239515;23;20281;-86
2023/08/06 07:16:29;;;;;;;1.80;1.30;;;28.30;89.20;;;;;;6242377;23;20731;-85
2023/08/06 07:18:57;;;;;;;0.50;0.50;;;28.40;89.20;;;;;;6239177;22;20194;-86
2023/08/06 07:21:26;;;;;;;1.08;1.05;;;28.40;88.90;;;;;;6243242;23;20173;-85
2023/08/06 07:23:55;;;;;;;0.80;0.75;;;28.40;88.60;;;;;;6238803;23;20487;-85
2023/08/06 07:26:25;;;;;;;1.15;0.75;;;28.40;88.30;;;;;;6240993;23;20182;-85
2023/08/06 07:28:54;;;;;;;3.67;1.48;;;28.40;88.10;;;;;;6240254;23;20166;-85
2023/08/06 07:31:22;;;;;;;0.85;0.73;;;28.40;88.00;;;;;;6243171;23;20174;-86
2023/08/06 07:33:51;;;;;;;1.42;0.82;;;28.50;87.90;;;;;;6241821;23;20200;-85
2023/08/06 07:36:20;;;;;;;1.80;1.38;;;28.50;87.70;;;;;;6239382;23;20169;-84
2023/08/06 07:38:55;;;;;;;0.52;0.52;;;28.60;87.50;;;;;;6241238;23;20241;-87
2023/08/06 07:41:39;;;;;;;2.65;1.42;;;28.60;87.00;;;;;;6226756;23;20173;-83
2023/08/06 07:44:07;;;;;;;1.13;1.02;;;28.60;86.70;;;;;;6240869;23;20166;-86
2023/08/06 07:46:36;;;;;;;0.80;0.80;;;28.60;86.30;;;;;;6240870;23;20162;-84
2023/08/06 07:49:04;;;;;;;0.95;0.60;;;28.70;86.30;;;;;;6241015;23;20238;-83
2023/08/06 07:51:33;;;;;;;1.35;1.10;;;28.70;86.20;;;;;;6243325;23;20172;-84
2023/08/06 07:54:01;;;;;;;2.35;1.08;;;28.80;86.00;;;;;;6241278;23;20194;-84
2023/08/06 07:56:30;;;;;;;1.40;1.10;;;28.80;85.60;;;;;;6243271;23;20198;-83
2023/08/06 07:59:00;;;;;;;1.20;1.08;;;28.80;85.50;;;;;;6243380;23;20630;-86
2023/08/06 08:01:28;;;;;;;1.88;1.50;;;28.80;85.50;;;;;;6243515;23;20597;-83
2023/08/06 08:03:57;;;;;;;0.73;0.60;;;28.80;85.30;;;;;;6242234;23;20484;-84
2023/08/06 08:07:14;;;;;;;1.40;0.95;;;28.90;85.40;;;;;;6243522;23;20537;-85
2023/08/06 08:10:06;;;;;;;0.85;0.75;;;28.90;85.10;;;;;;6230640;23;20166;-85
2023/08/06 08:13:00;;;;;;;0.68;0.60;;;28.90;85.20;;;;;;6243457;23;20174;-86
2023/08/06 08:18:54;;;;;;;0.57;0.57;;;29.00;85.20;;;;;;6239091;22;20270;-87
2023/08/06 08:21:24;;;;;;;0.95;0.57;;;29.00;84.90;;;;;;6239489;23;20244;-82
2023/08/06 08:23:52;;;;;;;0.73;0.73;;;29.10;84.80;;;;;;6241338;23;20510;-84
2023/08/06 08:26:21;;;;;;;0.50;0.50;;;29.20;84.80;;;;;;6241198;23;20163;-82
2023/08/06 08:28:49;;;;;;;1.73;0.82;;;29.20;84.70;;;;;;6243100;23;20329;-84
2023/08/06 08:31:19;;;;;;;1.58;1.27;;;29.30;84.50;;;;;;6242900;23;20494;-82
2023/08/06 08:33:48;;;;;;;6.18;1.45;;;29.30;84.50;;;;;;6236783;23;20191;-83
2023/08/06 08:36:18;;;;;;;2.00;1.00;;;29.30;84.20;;;;;;6239054;23;20162;-81
2023/08/06 08:38:47;;;;;;;1.30;0.98;;;29.40;84.10;;;;;;6213950;23;20556;-82
2023/08/06 08:41:17;;;;;;;1.17;0.93;;;29.40;83.90;;;;;;6237612;23;20174;-82
2023/08/06 08:43:46;;;;;;;1.40;1.23;;;29.40;83.70;;;;;;6239613;23;20175;-82
2023/08/06 08:46:14;;;;;;;0.70;0.70;;;29.40;83.50;;;;;;6241434;23;20608;-82
2023/08/06 08:48:45;;;;;;;3.05;1.33;;;29.50;83.20;;;;;;6239553;23;20174;-85
2023/08/06 08:51:15;;;;;;;3.53;1.27;;;29.50;82.80;;;;;;6238580;23;20163;-85
2023/08/06 08:53:45;;;;;;;0.90;0.80;;;29.60;82.80;;;;;;6240556;23;20413;-87
2023/08/06 08:56:14;;;;;;;1.02;0.93;;;29.70;82.90;;;;;;6244366;23;20234;-88
2023/08/06 08:58:43;;;;;;;1.23;1.00;;;29.70;82.20;;;;;;6242071;23;20166;-91
2023/08/06 09:01:12;;;;;;;0.80;0.80;;;29.70;81.20;;;;;;6243342;23;20224;-89
2023/08/06 09:03:47;;;;;;;4.32;1.67;;;29.70;80.40;;;;;;6243279;23;20164;-89
2023/08/06 09:06:21;;;;;;;0.98;0.60;;;29.70;79.20;;;;;;6242755;23;20216;-86
2023/08/06 09:08:57;;;;;;;1.23;1.00;;;29.70;79.10;;;;;;6241509;23;20170;-89
2023/08/06 09:11:27;;;;;;;1.42;1.27;;;29.70;78.50;;;;;;6244258;23;20169;-90
2023/08/06 09:13:59;;;;;;;1.85;1.02;;;29.70;78.70;;;;;;6241601;23;20198;-86
2023/08/06 09:16:28;;;;;;;2.78;1.42;;;29.70;77.50;;;;;;6241788;23;20193;-83
2023/08/06 09:19:07;;;;;;;0.43;0.43;;;29.60;77.50;;;;;;6240064;22;20198;-86
2023/08/06 09:21:40;;;;;;;0.68;0.47;;;29.60;76.70;;;;;;6240793;23;20178;-86
2023/08/06 09:24:14;;;;;;;0.28;0.28;;;29.60;76.80;;;;;;6241628;23;20162;-88
2023/08/06 09:26:44;;;;;;;0.60;0.52;;;29.60;76.90;;;;;;6243302;23;20161;-89
2023/08/06 09:29:14;;;;;;;0.45;0.45;;;29.60;76.60;;;;;;6241184;23;20178;-87
2023/08/06 09:32:00;;;;;;;0.40;0.40;;;29.60;75.70;;;;;;6245177;23;20162;-89
2023/08/06 09:34:42;;;;;;;5.28;1.27;;;29.60;74.10;;;;;;6243564;23;20190;-87
2023/08/06 09:37:41;;;;;;;0.85;0.50;;;29.50;73.90;;;;;;6244774;23;20181;-90
2023/08/06 09:46:23;;;;;;;0.70;0.70;;;29.30;73.10;;;;;;6185118;22;20342;-88
2023/08/06 09:49:03;;;;;;;0.30;0.30;;;29.20;73.10;;;;;;6305286;22;20161;-91
2023/08/06 09:52:20;;;;;;;0.40;0.40;;;29.30;73.50;;;;;;6299767;22;20249;-88
2023/08/06 09:55:26;;;;;;;0.80;0.60;;;29.30;73.60;;;;;;6147673;23;20283;-90
2023/08/06 09:58:16;;;;;;;0.40;0.40;;;29.30;73.40;;;;;;6163354;22;20168;-86
2023/08/06 10:00:52;;;;;;;2.33;1.20;;;29.30;73.60;;;;;;6305872;22;20206;-86
2023/08/06 10:03:28;;;;;;;1.02;0.88;;;29.40;74.10;;;;;;6303612;22;20171;-87
2023/08/06 10:06:06;;;;;;;0.95;0.30;;;29.40;74.00;;;;;;6303721;22;20176;-83
2023/08/06 10:08:37;;;;;;;1.20;0.60;;;29.50;73.40;;;;;;6301095;22;20207;-88
2023/08/06 10:11:08;;;;;;;1.08;0.73;;;29.50;73.10;;;;;;6302317;22;20169;-87
2023/08/06 10:13:37;;;;;;;0.50;0.50;;;29.50;73.80;;;;;;6302211;22;20165;-86
2023/08/06 10:16:06;;;;;;;1.85;0.57;;;29.60;73.10;;;;;;6298426;22;20165;-83
2023/08/06 10:18:38;;;;;;;0.45;0.45;;;29.60;72.40;;;;;;6301633;22;20281;-84
2023/08/06 10:21:09;;;;;;;0.40;0.40;;;29.70;72.50;;;;;;6299618;22;20607;-84
2023/08/06 10:23:41;;;;;;;0.30;0.30;;;29.70;72.50;;;;;;6301109;22;21026;-84
2023/08/06 10:26:11;;;;;;;0.52;0.43;;;29.80;72.80;;;;;;6299989;22;20164;-84
2023/08/06 10:28:40;;;;;;;1.25;0.80;;;29.80;72.10;;;;;;6299458;22;20506;-85
2023/08/06 10:31:12;;;;;;;0.93;0.68;;;29.80;71.20;;;;;;6300883;22;20166;-86
2023/08/06 10:33:45;;;;;;;0.60;0.50;;;29.90;71.20;;;;;;6302829;22;20255;-86
2023/08/06 10:36:14;;;;;;;0.52;0.52;;;29.90;71.20;;;;;;6302680;22;20153;-85
2023/08/06 10:38:47;;;;;;;0.40;0.38;;;29.90;70.70;;;;;;6303716;22;20187;-82
2023/08/06 10:41:24;;;;;;;0.47;0.47;;;29.90;70.70;;;;;;6302344;22;20185;-83
2023/08/06 10:43:53;;;;;;;0.40;0.40;;;30.00;70.90;;;;;;6301566;22;20164;-89
2023/08/06 10:46:28;;;;;;;0.30;0.30;;;30.00;71.10;;;;;;6302557;22;20215;-88
2023/08/06 10:48:56;;;;;;;0.45;0.30;;;30.10;71.30;;;;;;6300760;22;20199;-86
2023/08/06 10:51:24;;;;;;;0.30;0.30;;;30.10;71.40;;;;;;6303686;22;20625;-86
2023/08/06 10:53:53;;;;;;;0.35;0.35;;;30.10;71.30;;;;;;6302458;22;20161;-86
2023/08/06 10:56:25;;;;;;;2.55;0.50;;;30.10;71.20;;;;;;6300764;22;20175;-86
2023/08/06 10:58:55;;;;;;;0.35;0.35;;;30.00;71.00;;;;;;6300178;22;20149;-86
2023/08/06 11:01:25;;;;;;;0.50;0.50;;;30.00;70.70;;;;;;6302034;22;20167;-85
2023/08/06 11:03:54;;;;;;;3.92;1.30;;;30.00;70.00;;;;;;6297162;22;20668;-87
2023/08/06 11:06:26;;;;;;;0.47;0.47;;;29.90;70.00;;;;;;6301882;22;20172;-87
2023/08/06 11:09:03;;;;;;;0.40;0.40;;;29.90;70.30;;;;;;6301540;22;20169;-86
2023/08/06 11:11:33;;;;;;;1.20;0.60;;;29.80;69.80;;;;;;6301825;22;20190;-82
2023/08/06 11:14:29;;;;;;;0.38;0.38;;;29.80;69.90;;;;;;6303373;22;20181;-84
2023/08/06 11:24:10;;;;;;;1.15;0.60;;;29.80;70.70;;;;;;6175515;23;20197;-84
2023/08/06 11:27:15;;;;;;;0.20;0.20;;;29.80;70.60;;;;;;6176660;23;20566;-87
2023/08/06 11:29:56;;;;;;;2.22;0.88;;;29.70;70.40;;;;;;6296147;22;20173;-84
2023/08/06 11:36:05;;;;;;;0.85;0.57;;;29.70;70.40;;;;;;6300963;22;20657;-84
2023/08/06 11:44:19;;;;;;;0.40;0.40;;;29.60;70.50;;;;;;6333015;22;20471;-84
2023/08/06 11:47:04;;;;;;;0.40;0.40;;;29.60;70.60;;;;;;6332117;22;20167;-86
2023/08/06 11:53:38;;;;;;;;;;;;;;;;;;;;;
2023/08/06 11:56:25;;;;;;;1.90;0.63;;;29.60;70.80;;;;;;6331027;22;20192;-85
2023/08/06 11:58:57;;;;;;;0.50;0.50;;;29.60;70.90;;;;;;6334725;22;20160;-86
2023/08/06 12:02:35;;;;;;;;;;;;;;;;;;;;;
2023/08/06 12:14:25;;;;;;;0.52;0.50;;;29.70;70.50;;;;;;6057255;23;20256;-84
2023/08/06 12:16:54;;;;;;;0.90;0.88;;;29.70;70.70;;;;;;6118096;23;20682;-85
2023/08/06 12:19:23;;;;;;;0.55;0.30;;;29.70;70.90;;;;;;6116974;23;20173;-83
2023/08/06 12:21:52;;;;;;;0.30;0.30;;;29.70;70.90;;;;;;6114464;23;20683;-85
2023/08/06 12:24:21;;;;;;;0.52;0.52;;;29.80;71.20;;;;;;6117834;23;20658;-87
2023/08/06 12:26:51;;;;;;;0.73;0.57;;;29.70;71.10;;;;;;6119375;23;20173;-88
2023/08/06 12:29:20;;;;;;;1.27;1.02;;;29.80;71.20;;;;;;6118472;23;20497;-86
2023/08/06 12:31:49;;;;;;;0.65;0.65;;;29.80;71.10;;;;;;6118903;23;20173;-85
2023/08/06 12:34:17;;;;;;;0.35;0.35;;;29.80;72.10;;;;;;6120294;23;20180;-88
2023/08/06 12:36:47;;;;;;;1.05;0.95;;;29.90;71.30;;;;;;6120310;23;20289;-87
2023/08/06 12:39:16;;;;;;;0.52;0.30;;;29.90;71.20;;;;;;6120675;23;20173;-89
2023/08/06 12:41:45;;;;;;;0.35;0.35;;;29.80;71.20;;;;;;6122399;23;20165;-88
2023/08/06 12:44:16;;;;;;;1.35;0.98;;;29.90;71.30;;;;;;6120707;23;20169;-89
2023/08/06 12:46:44;;;;;;;1.02;0.90;;;29.90;71.50;;;;;;6119692;23;20248;-85
2023/08/06 12:49:12;;;;;;;1.15;0.68;;;29.90;71.80;;;;;;6120448;23;20176;-86
2023/08/06 12:51:41;;;;;;;0.40;0.40;;;29.90;71.90;;;;;;6170538;23;20199;-86
2023/08/06 12:54:10;;;;;;;0.80;0.80;;;29.90;72.10;;;;;;6242008;23;20166;-84
2023/08/06 12:56:38;;;;;;;2.58;0.47;;;29.90;72.10;;;;;;6244896;23;20286;-86
2023/08/06 12:59:06;;;;;;;0.38;0.38;;;29.90;72.10;;;;;;6242313;23;20174;-89
2023/08/06 13:01:38;;;;;;;0.52;0.52;;;29.80;72.00;;;;;;6243229;23;20163;-88
2023/08/06 13:04:06;;;;;;;0.30;0.30;;;29.90;72.10;;;;;;6242142;23;20638;-85
2023/08/06 13:06:48;;;;;;;0.55;0.50;;;29.90;72.10;;;;;;6241370;23;20215;-85
2023/08/06 13:09:17;;;;;;;1.13;0.88;;;30.00;72.30;;;;;;6239675;23;20240;-84
2023/08/06 13:11:46;;;;;;;0.95;0.88;;;30.00;72.30;;;;;;6243005;23;20252;-85
2023/08/06 13:14:15;;;;;;;0.60;0.60;;;30.00;72.30;;;;;;6242050;23;20225;-84
2023/08/06 13:16:45;;;;;;;3.22;1.33;;;30.00;71.00;;;;;;6242572;23;20194;-85
2023/08/06 13:19:14;;;;;;;0.77;0.70;;;30.10;71.20;;;;;;6243113;23;20217;-85
2023/08/06 13:22:09;;;;;;;0.68;0.63;;;30.20;71.40;;;;;;6244034;23;20193;-86
2023/08/06 13:24:38;;;;;;;1.80;1.08;;;30.40;72.40;;;;;;6171721;23;20181;-84
2023/08/06 13:27:06;;;;;;;1.10;0.77;;;30.50;71.30;;;;;;6242932;23;20177;-85
2023/08/06 13:29:35;;;;;;;0.73;0.60;;;30.60;70.90;;;;;;6241257;23;20170;-84
2023/08/06 13:32:05;;;;;;;4.60;0.52;;;30.60;70.00;;;;;;6235031;23;20588;-84
2023/08/06 13:34:33;;;;;;;0.70;0.70;;;30.70;69.60;;;;;;6240641;23;20208;-86
2023/08/06 13:37:02;;;;;;;1.13;0.60;;;30.70;69.80;;;;;;6240478;23;20229;-84
2023/08/06 13:39:30;;;;;;;5.93;0.88;;;30.70;69.60;;;;;;6239938;23;20493;-85
2023/08/06 13:41:59;;;;;;;0.50;0.43;;;30.70;69.90;;;;;;6243901;23;20171;-86
2023/08/06 13:44:28;;;;;;;0.73;0.73;;;30.70;69.70;;;;;;6238788;23;20751;-85
2023/08/06 13:46:57;;;;;;;5.32;0.90;;;30.70;69.70;;;;;;6242950;23;20167;-86
2023/08/06 13:49:28;;;;;;;0.50;0.50;;;30.60;70.30;;;;;;6241649;23;20477;-86